Brimhall, New Mexico
Current Conditions -  °F | °C
As of 11:53 AM on Monday 22 Dec 2014 (Local Time) from KGUP Reporting Station
Clear Clear  
Wind Chill: 42°   Ceiling: Unl
Heat Index: 48°   Visibility: 10mi
Dew Point: 36°   Wind: 15mph
Humidity: 63%   Direction: 230°SW
Pressure: 29.93"   Gusts: NA
Location:  35.78°N, 108.62°W
Report Text: KGUP 221853Z AUTO 23013KT 10SM CLR 09/02 A2993 RMK AO2 SLP097 T00890022
Loading
Personal Weather Stations






























Interactive Weather Map New forecast layout! Learn more

10-Day Weather Forecast

Advertisements
Track Severe Weather on mobile